createdAt,value
2023-02-03T00:00:15.529Z,5.50
2023-02-03T00:01:15.502Z,5.00
2023-02-03T00:02:15.536Z,5.10
2023-02-03T00:03:15.618Z,5.80
2023-02-03T00:04:15.478Z,8.30
2023-02-03T00:05:15.468Z,6.40
2023-02-03T00:06:15.454Z,5.70
2023-02-03T00:07:15.453Z,7.00
2023-02-03T00:08:15.425Z,8.60
2023-02-03T00:09:15.487Z,7.80
2023-02-03T00:10:15.422Z,4.90
2023-02-03T00:11:15.397Z,6.30
2023-02-03T00:12:15.388Z,12.50
2023-02-03T00:13:15.369Z,7.20
2023-02-03T00:14:15.365Z,5.60
2023-02-03T00:15:15.394Z,6.70
2023-02-03T00:16:15.385Z,3.40
2023-02-03T00:17:15.321Z,4.80
2023-02-03T00:18:15.341Z,4.00
2023-02-03T00:19:17.415Z,5.30
2023-02-03T00:20:15.319Z,5.70
2023-02-03T00:21:15.307Z,5.90
2023-02-03T00:22:15.319Z,7.20
2023-02-03T00:23:15.289Z,6.50
2023-02-03T00:24:15.262Z,4.30
2023-02-03T00:25:15.255Z,6.30
2023-02-03T00:26:15.259Z,2.90
2023-02-03T00:27:15.220Z,6.10
2023-02-03T00:28:15.267Z,7.60
2023-02-03T00:29:15.218Z,4.80
2023-02-03T00:30:15.232Z,10.40
2023-02-03T00:31:15.270Z,7.80
2023-02-03T00:32:15.284Z,7.60
2023-02-03T00:33:15.167Z,7.00
2023-02-03T00:34:15.169Z,4.30
2023-02-03T00:35:15.140Z,7.40
2023-02-03T00:36:15.163Z,6.90
2023-02-03T00:37:15.165Z,6.30
2023-02-03T00:38:15.117Z,3.90
2023-02-03T00:39:15.098Z,8.00
2023-02-03T00:40:15.118Z,3.70
2023-02-03T00:41:15.077Z,6.40
2023-02-03T00:42:15.104Z,5.00
2023-02-03T00:43:15.060Z,5.40
2023-02-03T00:44:15.051Z,9.70
2023-02-03T00:45:15.045Z,4.50
2023-02-03T00:46:15.076Z,5.00
2023-02-03T00:47:15.028Z,5.40
2023-02-03T00:48:15.013Z,8.20
2023-02-03T00:49:15.007Z,3.50
2023-02-03T00:50:14.997Z,6.00
2023-02-03T00:51:14.991Z,6.70
2023-02-03T00:52:14.982Z,8.10
2023-02-03T00:53:14.950Z,8.50
2023-02-03T00:54:14.942Z,6.90
2023-02-03T00:55:14.941Z,3.70
2023-02-03T00:56:14.926Z,5.00
2023-02-03T00:57:14.981Z,4.80
2023-02-03T00:58:14.919Z,5.80
2023-02-03T00:59:14.898Z,4.80
2023-02-03T01:00:14.895Z,3.70
2023-02-03T01:01:14.935Z,4.20
2023-02-03T01:02:14.929Z,4.30
2023-02-03T01:03:14.852Z,4.60
2023-02-03T01:04:14.848Z,6.70
2023-02-03T01:05:14.890Z,4.30
2023-02-03T01:06:14.823Z,4.00
2023-02-03T01:07:14.806Z,6.50
2023-02-03T01:08:14.820Z,7.00
2023-02-03T01:09:14.791Z,7.50
2023-02-03T01:10:14.808Z,9.20
2023-02-03T01:11:14.775Z,7.20
2023-02-03T01:12:14.763Z,7.40
2023-02-03T01:13:14.744Z,5.40
2023-02-03T01:14:14.739Z,7.80
2023-02-03T01:15:14.768Z,6.20
2023-02-03T01:16:14.777Z,8.00
2023-02-03T01:17:14.719Z,9.80
2023-02-03T01:18:14.711Z,6.90
2023-02-03T01:19:14.694Z,4.50
2023-02-03T01:20:14.708Z,8.80
2023-02-03T01:21:14.679Z,8.30
2023-02-03T01:22:14.675Z,9.10
2023-02-03T01:23:14.658Z,5.40
2023-02-03T01:24:14.665Z,7.10
2023-02-03T01:25:14.650Z,7.10
2023-02-03T01:26:14.640Z,6.40
2023-02-03T01:27:14.616Z,5.00
2023-02-03T01:28:14.686Z,7.10
2023-02-03T01:29:14.613Z,6.60
2023-02-03T01:30:14.596Z,9.50
2023-02-03T01:31:14.665Z,8.00
2023-02-03T01:32:14.555Z,8.70
2023-02-03T01:33:14.553Z,5.20
2023-02-03T01:34:14.531Z,9.50
2023-02-03T01:35:14.541Z,7.90
2023-02-03T01:36:14.514Z,6.60
2023-02-03T01:37:14.494Z,6.30
2023-02-03T01:38:14.491Z,6.20
2023-02-03T01:39:14.489Z,6.60
2023-02-03T01:40:14.494Z,6.80
2023-02-03T01:41:14.463Z,7.40
2023-02-03T01:42:14.452Z,6.90
2023-02-03T01:43:14.432Z,6.70
2023-02-03T01:44:14.424Z,6.20
2023-02-03T01:45:14.424Z,4.70
2023-02-03T01:46:14.482Z,8.60
2023-02-03T01:47:14.391Z,5.10
2023-02-03T01:48:14.397Z,3.80
2023-02-03T01:49:14.378Z,8.90
2023-02-03T01:50:14.411Z,9.90
2023-02-03T01:51:14.353Z,6.10
2023-02-03T01:52:14.354Z,6.80
2023-02-03T01:53:14.331Z,5.80
2023-02-03T01:54:14.325Z,7.90
2023-02-03T01:55:14.318Z,4.40
2023-02-03T01:56:14.310Z,7.20
2023-02-03T01:57:14.295Z,8.70
2023-02-03T01:58:14.279Z,7.20
2023-02-03T01:59:14.266Z,9.00
2023-02-03T02:00:14.288Z,8.00
2023-02-03T02:01:14.344Z,8.70
2023-02-03T02:02:14.301Z,7.00
2023-02-03T02:03:14.223Z,5.20
2023-02-03T02:04:14.221Z,5.90
2023-02-03T02:05:14.209Z,6.90
2023-02-03T02:06:14.215Z,7.90
2023-02-03T02:07:14.192Z,8.20
2023-02-03T02:08:14.193Z,5.80
2023-02-03T02:09:14.167Z,5.80
2023-02-03T02:10:14.187Z,6.50
2023-02-03T02:11:14.149Z,4.50
2023-02-03T02:12:14.147Z,7.10
2023-02-03T02:13:14.143Z,7.70
2023-02-03T02:14:14.115Z,9.00
2023-02-03T02:15:14.099Z,6.60
2023-02-03T02:16:14.194Z,6.10
2023-02-03T02:17:14.166Z,5.40
2023-02-03T02:18:14.068Z,6.70
2023-02-03T02:19:14.072Z,6.40
2023-02-03T02:20:14.072Z,7.80
2023-02-03T02:21:14.036Z,5.60
2023-02-03T02:22:14.031Z,9.90
2023-02-03T02:23:14.017Z,4.10
2023-02-03T02:24:14.015Z,6.00
2023-02-03T02:25:14.022Z,6.20
2023-02-03T02:26:13.992Z,6.10
2023-02-03T02:27:13.987Z,5.70
2023-02-03T02:28:14.040Z,5.10
2023-02-03T02:29:13.959Z,8.00
2023-02-03T02:30:13.962Z,6.50
2023-02-03T02:31:14.066Z,4.80
2023-02-03T02:32:13.921Z,5.40
2023-02-03T02:33:13.925Z,4.30
2023-02-03T02:34:13.902Z,4.60
2023-02-03T02:35:13.899Z,8.30
2023-02-03T02:36:13.889Z,4.10
2023-02-03T02:37:13.873Z,5.20
2023-02-03T02:38:13.857Z,6.70
2023-02-03T02:39:13.904Z,5.60
2023-02-03T02:40:13.860Z,5.40
2023-02-03T02:41:13.825Z,4.00
2023-02-03T02:42:13.820Z,7.60
2023-02-03T02:43:13.803Z,4.50
2023-02-03T02:44:13.802Z,3.40
2023-02-03T02:45:13.827Z,6.50
2023-02-03T02:46:13.792Z,5.50
2023-02-03T02:47:13.764Z,4.00
2023-02-03T02:48:13.783Z,3.00
2023-02-03T02:49:13.745Z,4.60
2023-02-03T02:50:13.755Z,4.30
2023-02-03T02:51:13.734Z,4.00
2023-02-03T02:52:13.712Z,3.50
2023-02-03T02:53:13.701Z,3.10
2023-02-03T02:54:13.698Z,2.90
2023-02-03T02:55:13.701Z,6.10
2023-02-03T02:56:15.530Z,3.40
2023-02-03T02:57:13.669Z,3.50
2023-02-03T02:58:13.670Z,2.80
2023-02-03T02:59:13.638Z,1.70
2023-02-03T03:00:13.660Z,2.60
2023-02-03T03:01:13.636Z,4.40
2023-02-03T03:02:13.610Z,3.20
2023-02-03T03:03:13.609Z,1.80
2023-02-03T03:04:13.590Z,1.80
2023-02-03T03:05:13.700Z,3.10
2023-02-03T03:06:13.573Z,4.80
2023-02-03T03:07:13.556Z,3.50
2023-02-03T03:08:13.546Z,3.90
2023-02-03T03:09:13.535Z,2.50
2023-02-03T03:10:13.553Z,2.20
2023-02-03T03:11:13.513Z,1.50
2023-02-03T03:12:13.533Z,2.40
2023-02-03T03:13:13.510Z,1.90
2023-02-03T03:14:13.497Z,1.60
2023-02-03T03:15:13.469Z,1.50
2023-02-03T03:16:13.558Z,4.70
2023-02-03T03:17:13.455Z,1.80
2023-02-03T03:18:13.436Z,2.00
2023-02-03T03:19:13.432Z,1.70
2023-02-03T03:20:13.430Z,3.60
2023-02-03T03:21:13.428Z,2.50
2023-02-03T03:22:13.394Z,1.40
2023-02-03T03:23:13.402Z,2.60
2023-02-03T03:24:13.375Z,2.20
2023-02-03T03:25:13.374Z,1.60
2023-02-03T03:26:13.375Z,2.70
2023-02-03T03:27:13.360Z,2.90
2023-02-03T03:28:13.400Z,2.10
2023-02-03T03:29:13.333Z,2.90
2023-02-03T03:30:13.320Z,1.40
2023-02-03T03:31:13.504Z,1.90
2023-02-03T03:32:13.293Z,2.10
2023-02-03T03:33:13.283Z,1.90
2023-02-03T03:34:13.282Z,3.00
2023-02-03T03:35:13.273Z,2.40
2023-02-03T03:36:13.268Z,2.30
2023-02-03T03:37:13.248Z,2.20
2023-02-03T03:38:13.232Z,1.50
2023-02-03T03:39:13.222Z,2.70
2023-02-03T03:40:13.217Z,1.60
2023-02-03T03:41:13.211Z,2.50
2023-02-03T03:42:13.210Z,1.20
2023-02-03T03:43:13.186Z,1.90
2023-02-03T03:44:13.178Z,1.80
2023-02-03T03:45:13.161Z,1.60
2023-02-03T03:46:13.178Z,2.00
2023-02-03T03:47:13.144Z,1.10
2023-02-03T03:48:13.129Z,2.60
2023-02-03T03:49:13.116Z,0.90
2023-02-03T03:50:13.111Z,2.30
2023-02-03T03:51:13.127Z,4.70
2023-02-03T03:52:13.096Z,1.40
2023-02-03T03:53:13.074Z,1.00
2023-02-03T03:54:13.084Z,2.30
2023-02-03T03:55:13.065Z,2.50
2023-02-03T03:56:13.079Z,2.00
2023-02-03T03:57:13.038Z,1.70
2023-02-03T03:58:13.023Z,1.60
2023-02-03T03:59:13.012Z,1.80
2023-02-03T04:00:13.002Z,0.90
2023-02-03T04:01:13.029Z,1.40
2023-02-03T04:02:13.119Z,1.60
2023-02-03T04:03:13.054Z,1.80
2023-02-03T04:04:12.965Z,1.90
2023-02-03T04:05:12.952Z,1.50
2023-02-03T04:06:12.935Z,0.90
2023-02-03T04:07:12.930Z,1.50
2023-02-03T04:08:12.956Z,1.10
2023-02-03T04:09:12.913Z,2.10
2023-02-03T04:10:12.909Z,0.90
2023-02-03T04:11:12.885Z,1.30
2023-02-03T04:12:12.875Z,2.20
2023-02-03T04:13:12.907Z,2.00
2023-02-03T04:14:12.849Z,2.20
2023-02-03T04:15:12.850Z,1.10
2023-02-03T04:16:12.857Z,1.50
2023-02-03T04:17:12.829Z,1.10
2023-02-03T04:18:12.857Z,1.20
2023-02-03T04:19:12.817Z,1.30
2023-02-03T04:20:12.808Z,1.30
2023-02-03T04:21:12.792Z,2.50
2023-02-03T04:22:12.773Z,1.20
2023-02-03T04:23:12.768Z,2.60
2023-02-03T04:24:12.755Z,2.10
2023-02-03T04:25:12.805Z,2.60
2023-02-03T04:26:12.735Z,2.10
2023-02-03T04:27:12.732Z,1.20
2023-02-03T04:28:12.767Z,1.40
2023-02-03T04:29:12.700Z,1.80
2023-02-03T04:30:12.685Z,2.50
2023-02-03T04:31:12.863Z,2.10
2023-02-03T04:32:12.672Z,3.00
2023-02-03T04:33:12.677Z,1.60
2023-02-03T04:34:12.647Z,1.80
2023-02-03T04:35:12.645Z,2.20
2023-02-03T04:36:12.644Z,3.10
2023-02-03T04:37:12.633Z,3.30
2023-02-03T04:38:12.630Z,2.20
2023-02-03T04:39:12.595Z,3.00
2023-02-03T04:40:12.585Z,2.40
2023-02-03T04:41:12.592Z,1.70
2023-02-03T04:42:12.565Z,3.20
2023-02-03T04:43:12.571Z,1.90
2023-02-03T04:44:12.564Z,16.50
2023-02-03T04:45:12.543Z,2.70
2023-02-03T04:46:12.621Z,9.80
2023-02-03T04:47:12.510Z,1.90
2023-02-03T04:48:12.495Z,3.20
2023-02-03T04:49:12.493Z,3.20
2023-02-03T04:50:12.500Z,5.40
2023-02-03T04:51:12.484Z,2.90
2023-02-03T04:52:12.450Z,2.20
2023-02-03T04:53:14.058Z,2.90
2023-02-03T04:54:12.443Z,2.10
2023-02-03T04:55:12.430Z,2.40
2023-02-03T04:56:12.430Z,4.70
2023-02-03T04:57:12.410Z,4.70
2023-02-03T04:58:12.386Z,4.90
2023-02-03T04:59:12.378Z,5.20
2023-02-03T05:00:12.371Z,4.60
2023-02-03T05:01:12.537Z,4.40
2023-02-03T05:02:12.350Z,3.00
2023-02-03T05:03:12.402Z,4.80
2023-02-03T05:04:12.327Z,4.40
2023-02-03T05:05:12.312Z,4.20
2023-02-03T05:06:12.317Z,4.40
2023-02-03T05:07:12.301Z,3.80
2023-02-03T05:08:12.279Z,5.10
2023-02-03T05:09:12.289Z,4.90
2023-02-03T05:10:12.256Z,5.30
2023-02-03T05:11:12.260Z,5.20
2023-02-03T05:12:12.254Z,5.00
2023-02-03T05:13:12.235Z,5.10
2023-02-03T05:14:18.304Z,6.00
2023-02-03T05:15:12.207Z,9.00
2023-02-03T05:16:12.221Z,5.50
2023-02-03T05:17:12.210Z,6.20
2023-02-03T05:18:12.201Z,7.10
2023-02-03T05:19:12.190Z,6.10
2023-02-03T05:20:12.154Z,5.50
2023-02-03T05:21:12.162Z,4.50
2023-02-03T05:22:12.161Z,5.70
2023-02-03T05:23:12.147Z,6.10
2023-02-03T05:24:12.118Z,7.30
2023-02-03T05:25:12.104Z,5.80
2023-02-03T05:26:12.103Z,6.30
2023-02-03T05:27:12.088Z,6.10
2023-02-03T05:28:12.232Z,6.20
2023-02-03T05:29:12.068Z,6.00
2023-02-03T05:30:12.054Z,6.20
2023-02-03T05:31:12.132Z,8.10
2023-02-03T05:32:12.075Z,6.00
2023-02-03T05:33:12.035Z,8.00
2023-02-03T05:34:12.021Z,7.10
2023-02-03T05:35:12.033Z,8.00
2023-02-03T05:36:12.017Z,6.40
2023-02-03T05:37:11.978Z,5.30
2023-02-03T05:38:11.962Z,6.50
2023-02-03T05:39:11.981Z,6.40
2023-02-03T05:40:11.945Z,7.10
2023-02-03T05:41:11.969Z,7.10
2023-02-03T05:42:11.928Z,7.70
2023-02-03T05:43:11.937Z,6.80
2023-02-03T05:44:11.906Z,6.90
2023-02-03T05:45:11.903Z,7.90
2023-02-03T05:46:12.016Z,7.70
2023-02-03T05:47:11.881Z,7.30
2023-02-03T05:48:11.851Z,8.00
2023-02-03T05:49:11.856Z,7.60
2023-02-03T05:50:11.842Z,9.70
2023-02-03T05:51:11.846Z,7.80
2023-02-03T05:52:11.833Z,7.40
2023-02-03T05:53:11.808Z,9.50
2023-02-03T05:54:11.809Z,12.10
2023-02-03T05:55:11.840Z,10.40
2023-02-03T05:56:11.805Z,9.10
2023-02-03T05:57:11.778Z,7.90
2023-02-03T05:58:12.335Z,9.20
2023-02-03T05:59:11.788Z,11.10
2023-02-03T06:00:11.735Z,10.80
2023-02-03T06:01:11.860Z,11.10
2023-02-03T06:02:11.707Z,7.80
2023-02-03T06:03:11.742Z,11.60
2023-02-03T06:04:11.889Z,13.00
2023-02-03T06:05:11.681Z,10.10
2023-02-03T06:06:11.693Z,9.60
2023-02-03T06:07:11.675Z,11.90
2023-02-03T06:08:11.642Z,10.90
2023-02-03T06:09:11.668Z,9.30
2023-02-03T06:10:11.633Z,12.20
2023-02-03T06:11:11.627Z,8.80
2023-02-03T06:12:11.595Z,8.70
2023-02-03T06:13:11.585Z,9.10
2023-02-03T06:14:11.610Z,9.60
2023-02-03T06:15:11.577Z,9.90
2023-02-03T06:16:11.679Z,11.60
2023-02-03T06:17:11.555Z,9.70
2023-02-03T06:18:11.528Z,12.30
2023-02-03T06:19:11.536Z,12.10
2023-02-03T06:20:11.480Z,11.60
2023-02-03T06:21:11.539Z,9.00
2023-02-03T06:22:12.708Z,11.60
2023-02-03T06:23:11.485Z,8.60
2023-02-03T06:24:11.511Z,9.50
2023-02-03T06:25:13.139Z,11.10
2023-02-03T06:26:11.395Z,9.90
2023-02-03T06:27:11.427Z,8.20
2023-02-03T06:28:11.515Z,9.90
2023-02-03T06:29:11.435Z,12.90
2023-02-03T06:30:11.431Z,7.80
2023-02-03T06:31:11.559Z,10.20
2023-02-03T06:32:11.377Z,11.90
2023-02-03T06:33:11.324Z,8.70
2023-02-03T06:34:11.305Z,10.20
2023-02-03T06:35:11.299Z,9.30
2023-02-03T06:36:12.090Z,9.20
2023-02-03T06:37:11.348Z,11.20
2023-02-03T06:38:11.289Z,11.30
2023-02-03T06:39:11.269Z,11.40
2023-02-03T06:40:11.278Z,9.70
2023-02-03T06:41:11.272Z,9.10
2023-02-03T06:42:11.248Z,11.40
2023-02-03T06:43:11.217Z,10.30
2023-02-03T06:44:11.207Z,12.60
2023-02-03T06:45:11.303Z,11.00
2023-02-03T06:46:11.267Z,8.90
2023-02-03T06:47:11.211Z,8.10
2023-02-03T06:48:11.155Z,11.40
2023-02-03T06:49:11.164Z,11.20
2023-02-03T06:50:11.174Z,10.10
2023-02-03T06:51:11.137Z,8.30
2023-02-03T06:52:11.137Z,10.00
2023-02-03T06:53:11.109Z,10.20
2023-02-03T06:54:11.113Z,10.30
2023-02-03T06:55:11.104Z,10.00
2023-02-03T06:56:11.085Z,10.20
2023-02-03T06:57:11.088Z,8.70
2023-02-03T06:58:11.056Z,9.90
2023-02-03T06:59:11.059Z,11.20
2023-02-03T07:00:13.618Z,8.90
2023-02-03T07:01:11.185Z,8.10
2023-02-03T07:02:11.054Z,8.70
2023-02-03T07:03:11.007Z,12.10
2023-02-03T07:04:10.987Z,7.90
2023-02-03T07:05:10.994Z,7.70
2023-02-03T07:06:10.968Z,11.40
2023-02-03T07:07:10.995Z,10.60
2023-02-03T07:08:10.999Z,8.40
2023-02-03T07:09:10.948Z,8.60
2023-02-03T07:10:11.004Z,10.00
2023-02-03T07:11:10.935Z,8.20
2023-02-03T07:12:10.932Z,8.30
2023-02-03T07:13:10.908Z,6.80
2023-02-03T07:14:10.883Z,7.10
2023-02-03T07:15:10.874Z,8.10
2023-02-03T07:16:10.942Z,10.30
2023-02-03T07:17:10.910Z,7.50
2023-02-03T07:18:11.832Z,8.60
2023-02-03T07:19:10.848Z,9.40
2023-02-03T07:20:10.817Z,7.30
2023-02-03T07:21:10.813Z,8.30
2023-02-03T07:22:10.869Z,7.70
2023-02-03T07:23:10.811Z,7.80
2023-02-03T07:24:10.787Z,7.20
2023-02-03T07:25:10.762Z,8.00
2023-02-03T07:26:10.810Z,9.30
2023-02-03T07:27:10.770Z,8.40
2023-02-03T07:28:10.877Z,9.10
2023-02-03T07:29:10.737Z,7.80
2023-02-03T07:30:10.834Z,6.50
2023-02-03T07:31:10.948Z,10.30
2023-02-03T07:32:10.881Z,10.10
2023-02-03T07:33:10.720Z,7.70
2023-02-03T07:34:10.684Z,6.70
2023-02-03T07:35:10.663Z,7.40
2023-02-03T07:36:10.690Z,8.90
2023-02-03T07:37:10.694Z,8.70
2023-02-03T07:38:10.650Z,11.00
2023-02-03T07:39:10.632Z,7.50
2023-02-03T07:40:10.621Z,7.00
2023-02-03T07:41:10.608Z,9.30
2023-02-03T07:42:10.675Z,8.50
2023-02-03T07:43:10.604Z,9.10
2023-02-03T07:44:10.594Z,11.40
2023-02-03T07:45:10.586Z,9.10
2023-02-03T07:46:10.600Z,7.20
2023-02-03T07:47:12.557Z,11.80
2023-02-03T07:48:10.539Z,7.30
2023-02-03T07:49:10.552Z,5.90
2023-02-03T07:50:10.552Z,8.30
2023-02-03T07:51:10.506Z,6.10
2023-02-03T07:52:10.506Z,5.70
2023-02-03T07:53:10.526Z,8.40
2023-02-03T07:54:10.484Z,8.20
2023-02-03T07:55:10.461Z,10.40
2023-02-03T07:56:10.468Z,10.10
2023-02-03T07:57:10.467Z,10.60
2023-02-03T07:58:10.434Z,6.30
2023-02-03T07:59:10.440Z,8.60
2023-02-03T08:00:10.416Z,9.60
2023-02-03T08:01:10.390Z,5.30
2023-02-03T08:02:10.436Z,8.60
2023-02-03T08:03:10.404Z,6.00
2023-02-03T08:04:10.374Z,5.90
2023-02-03T08:05:10.498Z,6.90
2023-02-03T08:06:10.359Z,5.00
2023-02-03T08:07:10.336Z,4.40
2023-02-03T08:08:10.320Z,5.10
2023-02-03T08:09:10.339Z,5.20
2023-02-03T08:10:10.338Z,6.40
2023-02-03T08:11:10.317Z,7.40
2023-02-03T08:12:10.292Z,5.00
2023-02-03T08:13:10.277Z,5.60
2023-02-03T08:14:10.272Z,5.50
2023-02-03T08:15:10.562Z,4.50
2023-02-03T08:16:10.272Z,6.30
2023-02-03T08:17:10.234Z,6.20
2023-02-03T08:18:10.219Z,5.70
2023-02-03T08:19:10.211Z,5.90
2023-02-03T08:20:10.218Z,5.30
2023-02-03T08:21:10.194Z,5.60
2023-02-03T08:22:10.191Z,7.60
2023-02-03T08:23:10.217Z,4.90
2023-02-03T08:24:10.221Z,6.10
2023-02-03T08:25:10.149Z,6.20
2023-02-03T08:26:10.140Z,6.10
2023-02-03T08:27:10.225Z,4.70
2023-02-03T08:28:10.142Z,5.20
2023-02-03T08:29:10.095Z,9.70
2023-02-03T08:30:10.128Z,4.50
2023-02-03T08:31:10.276Z,5.30
2023-02-03T08:32:10.217Z,6.60
2023-02-03T08:33:10.053Z,6.40
2023-02-03T08:34:10.065Z,6.60
2023-02-03T08:35:10.039Z,5.20
2023-02-03T08:36:10.037Z,6.30
2023-02-03T08:37:10.077Z,5.20
2023-02-03T08:38:10.021Z,3.60
2023-02-03T08:39:10.015Z,7.20
2023-02-03T08:40:10.029Z,4.50
2023-02-03T08:41:09.974Z,7.80
2023-02-03T08:42:10.007Z,5.90
2023-02-03T08:43:09.945Z,5.60
2023-02-03T08:44:09.950Z,5.70
2023-02-03T08:45:09.938Z,5.00
2023-02-03T08:46:09.981Z,5.30
2023-02-03T08:47:09.930Z,4.00
2023-02-03T08:48:09.905Z,5.60
2023-02-03T08:49:09.882Z,5.80
2023-02-03T08:50:09.899Z,3.50
2023-02-03T08:51:09.886Z,3.40
2023-02-03T08:52:09.881Z,4.90
2023-02-03T08:53:09.872Z,3.90
2023-02-03T08:54:09.846Z,3.70
2023-02-03T08:55:09.834Z,3.60
2023-02-03T08:56:09.842Z,3.50
2023-02-03T08:57:09.882Z,2.20
2023-02-03T08:58:09.844Z,5.20
2023-02-03T08:59:09.788Z,5.90
2023-02-03T09:00:09.802Z,8.40
2023-02-03T09:01:09.854Z,7.30
2023-02-03T09:02:09.781Z,4.70
2023-02-03T09:03:09.754Z,7.70
2023-02-03T09:04:09.734Z,4.30
2023-02-03T09:05:09.773Z,3.30
2023-02-03T09:06:09.739Z,3.40
2023-02-03T09:07:09.708Z,2.60
2023-02-03T09:08:09.701Z,3.80
2023-02-03T09:09:09.703Z,3.00
2023-02-03T09:10:09.693Z,4.10
2023-02-03T09:11:09.674Z,3.10
2023-02-03T09:12:09.697Z,3.80
2023-02-03T09:13:09.637Z,3.90
2023-02-03T09:14:09.641Z,4.20
2023-02-03T09:15:09.687Z,5.00
2023-02-03T09:16:09.673Z,2.80
2023-02-03T09:17:10.146Z,3.50
2023-02-03T09:18:09.591Z,4.10
2023-02-03T09:19:09.587Z,2.10
2023-02-03T09:20:09.617Z,3.40
2023-02-03T09:21:10.083Z,3.10
2023-02-03T09:22:09.585Z,2.00
2023-02-03T09:23:09.537Z,2.30
2023-02-03T09:24:09.518Z,6.60
2023-02-03T09:25:09.517Z,3.40
2023-02-03T09:26:09.502Z,3.40
2023-02-03T09:27:09.509Z,3.50
2023-02-03T09:28:09.550Z,4.20
2023-02-03T09:29:09.474Z,3.30
2023-02-03T09:30:09.466Z,2.40
2023-02-03T09:31:09.645Z,2.20
2023-02-03T09:32:09.507Z,3.60
2023-02-03T09:33:09.444Z,5.10
2023-02-03T09:34:09.479Z,2.10
2023-02-03T09:35:09.398Z,4.40
2023-02-03T09:36:09.411Z,2.80
2023-02-03T09:37:09.442Z,3.20
2023-02-03T09:38:09.392Z,3.00
2023-02-03T09:39:09.367Z,2.30
2023-02-03T09:40:09.379Z,2.60
2023-02-03T09:41:11.982Z,3.10
2023-02-03T09:42:09.621Z,2.80
2023-02-03T09:43:09.323Z,2.50
2023-02-03T09:44:09.363Z,4.80
2023-02-03T09:45:09.311Z,4.00
2023-02-03T09:46:09.364Z,2.40
2023-02-03T09:47:09.346Z,2.40
2023-02-03T09:48:09.293Z,3.30
2023-02-03T09:49:09.271Z,3.10
2023-02-03T09:50:09.255Z,4.90
2023-02-03T09:51:09.259Z,3.00
2023-02-03T09:52:09.260Z,2.50
2023-02-03T09:53:09.275Z,2.50
2023-02-03T09:54:09.227Z,3.70
2023-02-03T09:55:09.217Z,3.70
2023-02-03T09:56:09.204Z,3.70
2023-02-03T09:57:10.009Z,3.30
2023-02-03T09:58:09.190Z,5.50
2023-02-03T09:59:09.158Z,2.40
2023-02-03T10:00:09.166Z,2.50
2023-02-03T10:01:09.186Z,1.90
2023-02-03T10:02:09.214Z,2.20
2023-02-03T10:03:09.136Z,2.60
2023-02-03T10:04:09.114Z,6.20
2023-02-03T10:05:09.972Z,2.90
2023-02-03T10:06:09.107Z,3.30
2023-02-03T10:07:09.093Z,2.30
2023-02-03T10:08:09.116Z,2.80
2023-02-03T10:09:09.067Z,1.90
2023-02-03T10:10:09.062Z,1.90
2023-02-03T10:11:09.043Z,4.70
2023-02-03T10:12:09.037Z,4.60
2023-02-03T10:13:09.015Z,2.90
2023-02-03T10:14:09.047Z,3.10
2023-02-03T10:15:09.020Z,3.00
2023-02-03T10:16:08.987Z,3.40
2023-02-03T10:17:09.020Z,1.90
2023-02-03T10:18:08.986Z,4.00
2023-02-03T10:19:08.949Z,2.70
2023-02-03T10:20:08.945Z,2.10
2023-02-03T10:21:08.941Z,2.70
2023-02-03T10:22:08.935Z,2.40
2023-02-03T10:23:08.923Z,1.70
2023-02-03T10:24:08.915Z,1.70
2023-02-03T10:25:08.878Z,1.70
2023-02-03T10:26:08.874Z,3.00
2023-02-03T10:27:08.899Z,1.70
2023-02-03T10:28:08.951Z,4.70
2023-02-03T10:29:08.835Z,1.50
2023-02-03T10:30:08.868Z,1.80
2023-02-03T10:31:08.983Z,2.10
2023-02-03T10:32:08.985Z,1.40
2023-02-03T10:33:08.806Z,1.30
2023-02-03T10:34:08.845Z,1.60
2023-02-03T10:35:08.786Z,1.90
2023-02-03T10:36:08.845Z,1.60
2023-02-03T10:37:08.770Z,1.40
2023-02-03T10:38:08.765Z,1.80
2023-02-03T10:39:08.805Z,1.70
2023-02-03T10:40:08.735Z,1.40
2023-02-03T10:41:08.767Z,2.00
2023-02-03T10:42:08.745Z,1.50
2023-02-03T10:43:09.096Z,4.00
2023-02-03T10:44:08.702Z,2.00
2023-02-03T10:45:08.695Z,2.70
2023-02-03T10:46:08.743Z,5.00
2023-02-03T10:47:08.661Z,8.20
2023-02-03T10:48:08.685Z,2.40
2023-02-03T10:49:08.675Z,1.30
2023-02-03T10:50:08.651Z,4.80
2023-02-03T10:51:08.643Z,4.80
2023-02-03T10:52:08.703Z,3.60
2023-02-03T10:53:08.624Z,6.00
2023-02-03T10:54:08.608Z,1.00
2023-02-03T10:55:08.619Z,4.20
2023-02-03T10:56:08.599Z,2.50
2023-02-03T10:57:08.543Z,4.00
2023-02-03T10:58:08.563Z,3.00
2023-02-03T10:59:08.520Z,3.20
2023-02-03T11:00:08.513Z,5.70
2023-02-03T11:01:08.550Z,6.70
2023-02-03T11:02:08.532Z,1.90
2023-02-03T11:03:08.516Z,1.60
2023-02-03T11:04:08.493Z,8.40
2023-02-03T11:05:08.457Z,12.50
2023-02-03T11:06:08.456Z,3.30
2023-02-03T11:07:08.473Z,11.50
2023-02-03T11:08:08.457Z,5.50
2023-02-03T11:09:08.423Z,8.30
2023-02-03T11:10:08.401Z,5.50
2023-02-03T11:11:08.393Z,4.00
2023-02-03T11:12:08.388Z,3.30
2023-02-03T11:13:08.396Z,7.70
2023-02-03T11:14:08.391Z,7.10
2023-02-03T11:15:08.348Z,5.40
2023-02-03T11:16:08.438Z,8.00
2023-02-03T11:17:08.337Z,3.00
2023-02-03T11:18:08.390Z,6.70
2023-02-03T11:19:08.341Z,3.60
2023-02-03T11:20:08.327Z,4.60
2023-02-03T11:21:08.365Z,7.10
2023-02-03T11:22:08.311Z,8.60
2023-02-03T11:23:08.302Z,6.10
2023-02-03T11:24:08.287Z,2.60
2023-02-03T11:25:08.265Z,7.10
2023-02-03T11:26:08.471Z,7.20
2023-02-03T11:27:08.238Z,9.60
2023-02-03T11:28:08.273Z,6.10
2023-02-03T11:29:08.321Z,8.20
2023-02-03T11:30:08.219Z,4.20
2023-02-03T11:31:08.369Z,4.70
2023-02-03T11:32:08.291Z,9.20
2023-02-03T11:33:08.187Z,7.30
2023-02-03T11:34:08.235Z,6.90
2023-02-03T11:35:08.141Z,7.80
2023-02-03T11:36:08.143Z,6.30
2023-02-03T11:37:08.141Z,5.10
2023-02-03T11:38:08.285Z,10.10
2023-02-03T11:39:08.105Z,11.00
2023-02-03T11:40:08.159Z,8.40
2023-02-03T11:41:08.099Z,8.30
2023-02-03T11:42:08.085Z,3.50
2023-02-03T11:43:08.085Z,9.50
2023-02-03T11:44:08.089Z,5.40
2023-02-03T11:45:08.067Z,4.40
2023-02-03T11:46:08.103Z,8.20
2023-02-03T11:47:08.043Z,8.30
2023-02-03T11:48:08.054Z,7.00
2023-02-03T11:49:08.030Z,8.30
2023-02-03T11:50:07.990Z,6.70
2023-02-03T11:51:08.015Z,7.30
2023-02-03T11:52:07.992Z,11.40
2023-02-03T11:53:14.639Z,3.10
2023-02-03T11:54:07.949Z,6.70
2023-02-03T11:55:07.932Z,4.70
2023-02-03T11:56:07.934Z,4.50
2023-02-03T11:57:07.916Z,6.60
2023-02-03T11:58:07.937Z,7.60
2023-02-03T11:59:07.904Z,11.80
2023-02-03T12:00:07.878Z,14.50
2023-02-03T12:01:07.875Z,12.70
2023-02-03T12:02:07.921Z,12.50
2023-02-03T12:03:07.956Z,7.00
2023-02-03T12:04:07.918Z,12.40
2023-02-03T12:05:07.877Z,7.60
2023-02-03T12:06:07.824Z,5.10
2023-02-03T12:07:07.819Z,5.10
2023-02-03T12:08:07.836Z,4.20
2023-02-03T12:09:07.804Z,8.30
2023-02-03T12:10:07.788Z,2.50
2023-02-03T12:11:07.774Z,8.60
2023-02-03T12:12:07.764Z,7.60
2023-02-03T12:13:07.779Z,9.30
2023-02-03T12:14:07.781Z,7.90
2023-02-03T12:15:07.732Z,8.80
2023-02-03T12:16:07.805Z,7.50
2023-02-03T12:17:07.712Z,9.50
2023-02-03T12:18:07.741Z,12.00
2023-02-03T12:19:07.687Z,8.20
2023-02-03T12:20:07.717Z,8.50
2023-02-03T12:21:07.688Z,3.70
2023-02-03T12:22:07.677Z,6.10
2023-02-03T12:23:07.645Z,14.30
2023-02-03T12:24:07.635Z,7.50
2023-02-03T12:25:07.637Z,9.70
2023-02-03T12:26:07.623Z,15.90
2023-02-03T12:27:07.609Z,12.70
2023-02-03T12:28:07.711Z,9.40
2023-02-03T12:29:07.626Z,9.20
2023-02-03T12:30:07.590Z,9.00
2023-02-03T12:31:07.797Z,12.00
2023-02-03T12:32:07.643Z,12.10
2023-02-03T12:33:07.614Z,11.30
2023-02-03T12:34:07.631Z,19.10
2023-02-03T12:35:07.536Z,9.00
2023-02-03T12:36:07.509Z,7.40
2023-02-03T12:37:07.512Z,8.30
2023-02-03T12:38:07.524Z,6.40
2023-02-03T12:39:07.475Z,11.00
2023-02-03T12:40:07.494Z,11.10
2023-02-03T12:41:07.488Z,11.10
2023-02-03T12:42:07.461Z,18.60
2023-02-03T12:43:07.480Z,7.50
2023-02-03T12:44:07.437Z,14.30
2023-02-03T12:45:07.439Z,14.40
2023-02-03T12:46:07.417Z,13.20
2023-02-03T12:47:07.402Z,12.10
2023-02-03T12:48:07.428Z,12.20
2023-02-03T12:49:07.380Z,10.20
2023-02-03T12:50:07.354Z,18.10
2023-02-03T12:51:07.374Z,9.60
2023-02-03T12:52:07.331Z,10.50
2023-02-03T12:53:07.653Z,8.90
2023-02-03T12:54:07.333Z,7.40
2023-02-03T12:55:07.318Z,10.60
2023-02-03T12:56:07.316Z,7.40
2023-02-03T12:57:07.307Z,11.60
2023-02-03T12:58:07.325Z,9.80
2023-02-03T12:59:07.269Z,13.90
2023-02-03T13:00:07.251Z,6.30
2023-02-03T13:01:07.354Z,5.80
2023-02-03T13:02:07.262Z,3.40
2023-02-03T13:03:07.271Z,5.60
2023-02-03T13:04:07.238Z,3.00
2023-02-03T13:05:07.208Z,5.30
2023-02-03T13:06:07.183Z,8.50
2023-02-03T13:07:07.181Z,4.30
2023-02-03T13:08:07.181Z,2.70
2023-02-03T13:09:07.169Z,6.50
2023-02-03T13:10:07.159Z,6.90
2023-02-03T13:11:07.146Z,3.10
2023-02-03T13:12:07.122Z,4.80
2023-02-03T13:13:07.131Z,4.10
2023-02-03T13:14:07.125Z,3.10
2023-02-03T13:15:07.126Z,5.50